createdAt,value
2019-03-03T00:01:06.916Z,-2.03
2019-03-03T00:03:38.869Z,-2.03
2019-03-03T00:06:10.704Z,-2.03
2019-03-03T00:08:42.583Z,-2.04
2019-03-03T00:11:14.419Z,-2.06
2019-03-03T00:13:46.778Z,-2.08
2019-03-03T00:16:18.572Z,-2.09
2019-03-03T00:18:50.502Z,-2.08
2019-03-03T00:21:22.776Z,-2.07
2019-03-03T00:23:55.035Z,-2.07
2019-03-03T00:26:26.775Z,-2.07
2019-03-03T00:28:59.268Z,-2.09
2019-03-03T00:31:38.289Z,-2.09
2019-03-03T00:34:10.194Z,-2.09
2019-03-03T00:37:07.428Z,-2.11
2019-03-03T00:40:00.942Z,-2.09
2019-03-03T00:42:51.678Z,-2.07
2019-03-03T00:45:48.751Z,-2.07
2019-03-03T00:48:48.557Z,-2.08
2019-03-03T00:51:32.619Z,-2.11
2019-03-03T00:54:18.852Z,-2.11
2019-03-03T00:57:02.664Z,-2.09
2019-03-03T01:00:08.627Z,-2.08
2019-03-03T01:02:56.644Z,-2.07
2019-03-03T01:05:53.505Z,-2.05
2019-03-03T01:08:44.241Z,-2.04
2019-03-03T01:11:38.544Z,-2.04
2019-03-03T01:14:29.261Z,-2.00
2019-03-03T01:17:22.873Z,-1.96
2019-03-03T01:20:19.803Z,-1.93
2019-03-03T01:23:28.563Z,-1.84
2019-03-03T01:26:00.384Z,-1.78
2019-03-03T01:28:32.287Z,-1.73
2019-03-03T01:31:04.440Z,-1.65
2019-03-03T01:33:36.372Z,-1.59
2019-03-03T01:36:08.655Z,-1.51
2019-03-03T01:38:40.436Z,-1.42
2019-03-03T01:41:12.493Z,-1.37
2019-03-03T01:43:44.285Z,-1.30
2019-03-03T01:46:16.729Z,-1.26
2019-03-03T01:48:48.744Z,-1.23
2019-03-03T01:51:20.860Z,-1.17
2019-03-03T01:53:52.674Z,-1.07
2019-03-03T01:56:24.679Z,-0.96
2019-03-03T01:58:56.476Z,-0.92
2019-03-03T02:01:28.596Z,-0.84
2019-03-03T02:04:00.626Z,-0.79
2019-03-03T02:06:32.629Z,-0.77
2019-03-03T02:09:06.027Z,-0.68
2019-03-03T02:11:39.233Z,-0.62
2019-03-03T02:14:11.139Z,-0.56
2019-03-03T02:16:43.154Z,-0.55
2019-03-03T02:19:15.108Z,-0.46
2019-03-03T02:21:47.181Z,-0.38
2019-03-03T02:24:19.318Z,-0.33
2019-03-03T02:26:51.278Z,-0.30
2019-03-03T02:29:23.044Z,-0.27
2019-03-03T02:31:54.854Z,-0.24
2019-03-03T02:34:26.879Z,-0.18
2019-03-03T02:36:58.625Z,-0.13
2019-03-03T02:39:30.399Z,-0.11
2019-03-03T02:42:02.373Z,-0.08
2019-03-03T02:44:34.145Z,-0.08
2019-03-03T02:47:06.200Z,-0.02
2019-03-03T02:49:38.203Z,0.01
2019-03-03T02:52:10.346Z,0.05
2019-03-03T02:54:42.077Z,0.11
2019-03-03T02:57:14.463Z,0.14
2019-03-03T02:59:46.205Z,0.20
2019-03-03T03:02:49.639Z,0.18
2019-03-03T03:05:45.518Z,0.21
2019-03-03T03:08:21.288Z,0.27
2019-03-03T03:11:10.550Z,0.31
2019-03-03T03:14:07.355Z,0.33
2019-03-03T03:16:48.151Z,0.34
2019-03-03T03:19:48.124Z,0.39
2019-03-03T03:22:29.724Z,0.42
2019-03-03T03:25:20.721Z,0.44
2019-03-03T03:28:11.348Z,0.48
2019-03-03T03:30:52.392Z,0.50
2019-03-03T03:33:58.279Z,0.50
2019-03-03T03:37:01.030Z,0.47
2019-03-03T03:40:03.675Z,0.44
2019-03-03T03:43:03.643Z,0.45
2019-03-03T03:46:00.267Z,0.46
2019-03-03T03:48:57.182Z,0.46
2019-03-03T03:51:37.302Z,0.45
2019-03-03T03:54:43.599Z,0.35
2019-03-03T03:57:49.551Z,0.43
2019-03-03T04:00:40.413Z,0.52
2019-03-03T04:03:31.048Z,0.57
2019-03-03T04:06:21.516Z,0.60
2019-03-03T04:09:05.701Z,0.54
2019-03-03T04:11:59.976Z,0.58
2019-03-03T04:14:50.218Z,0.54
2019-03-03T04:17:39.211Z,0.59
2019-03-03T04:20:29.917Z,0.64
2019-03-03T04:23:29.671Z,0.69
2019-03-03T04:26:18.137Z,0.78
2019-03-03T04:29:09.097Z,0.81
2019-03-03T04:31:55.124Z,0.84
2019-03-03T04:34:54.712Z,0.85
2019-03-03T04:37:44.606Z,0.91
2019-03-03T04:40:31.533Z,0.92
2019-03-03T04:43:24.903Z,0.97
2019-03-03T04:46:17.403Z,0.99
2019-03-03T04:48:55.739Z,1.00
2019-03-03T04:51:54.082Z,1.00
2019-03-03T04:54:49.050Z,1.00
2019-03-03T04:57:39.758Z,1.04
2019-03-03T05:00:43.169Z,1.03
2019-03-03T05:03:34.329Z,1.00
2019-03-03T05:06:28.105Z,0.96
2019-03-03T05:09:18.821Z,1.00
2019-03-03T05:12:41.373Z,1.01
2019-03-03T05:15:44.230Z,1.05
2019-03-03T05:18:38.522Z,1.08
2019-03-03T05:21:10.576Z,1.10
2019-03-03T05:23:43.483Z,1.12
2019-03-03T05:26:15.575Z,1.11
2019-03-03T05:28:47.326Z,1.08
2019-03-03T05:31:19.361Z,1.17
2019-03-03T05:33:51.128Z,1.15
2019-03-03T05:36:22.974Z,1.18
2019-03-03T05:38:54.726Z,1.15
2019-03-03T05:41:26.742Z,1.20
2019-03-03T05:43:58.499Z,1.22
2019-03-03T05:46:30.528Z,1.28
2019-03-03T05:49:02.329Z,1.29
2019-03-03T05:51:34.466Z,1.34
2019-03-03T05:54:06.254Z,1.36
2019-03-03T05:56:38.601Z,1.39
2019-03-03T05:59:10.408Z,1.43
2019-03-03T06:01:42.517Z,1.37
2019-03-03T06:04:14.321Z,1.50
2019-03-03T06:06:46.134Z,1.56
2019-03-03T06:09:18.403Z,1.62
2019-03-03T06:11:50.423Z,1.68
2019-03-03T06:14:22.189Z,1.74
2019-03-03T06:16:54.137Z,1.77
2019-03-03T06:19:26.102Z,1.81
2019-03-03T06:21:57.928Z,1.82
2019-03-03T06:24:29.786Z,1.75
2019-03-03T06:27:02.888Z,1.83
2019-03-03T06:29:34.676Z,1.84
2019-03-03T06:32:06.461Z,1.86
2019-03-03T06:34:38.291Z,1.86
2019-03-03T06:37:10.179Z,1.86
2019-03-03T06:39:42.052Z,1.78
2019-03-03T06:42:14.454Z,1.82
2019-03-03T06:44:46.380Z,1.79
2019-03-03T06:47:18.480Z,1.80
2019-03-03T06:49:50.307Z,1.84
2019-03-03T06:52:22.503Z,1.86
2019-03-03T06:54:54.345Z,1.94
2019-03-03T06:57:26.532Z,2.08
2019-03-03T06:59:58.499Z,2.23
2019-03-03T07:02:30.483Z,2.27
2019-03-03T07:05:02.321Z,2.09
2019-03-03T07:07:34.408Z,2.13
2019-03-03T07:10:07.833Z,2.00
2019-03-03T07:12:40.263Z,2.21
2019-03-03T07:15:16.700Z,2.27
2019-03-03T07:17:49.678Z,2.37
2019-03-03T07:20:21.475Z,2.53
2019-03-03T07:22:53.550Z,2.70
2019-03-03T07:25:25.407Z,2.89
2019-03-03T07:27:57.620Z,3.00
2019-03-03T07:30:29.436Z,3.11
2019-03-03T07:33:35.788Z,3.34
2019-03-03T07:36:09.091Z,3.36
2019-03-03T07:38:41.376Z,3.26
2019-03-03T07:41:13.262Z,3.31
2019-03-03T07:43:45.424Z,3.29
2019-03-03T07:46:17.213Z,3.42
2019-03-03T07:48:49.097Z,3.39
2019-03-03T07:51:20.853Z,3.69
2019-03-03T07:53:52.736Z,3.75
2019-03-03T07:56:24.515Z,3.99
2019-03-03T07:58:56.718Z,4.10
2019-03-03T08:01:29.667Z,4.33
2019-03-03T08:04:02.913Z,4.35
2019-03-03T08:06:34.686Z,4.49
2019-03-03T08:09:10.313Z,4.73
2019-03-03T08:11:42.121Z,4.95
2019-03-03T08:14:15.724Z,4.90
2019-03-03T08:16:47.624Z,4.87
2019-03-03T08:19:21.004Z,5.15
2019-03-03T08:21:52.809Z,5.32
2019-03-03T08:24:24.923Z,5.35
2019-03-03T08:26:56.810Z,5.11
2019-03-03T08:29:29.059Z,5.29
2019-03-03T08:32:00.840Z,5.36
2019-03-03T08:34:32.869Z,5.25
2019-03-03T08:37:04.733Z,5.30
2019-03-03T08:39:36.811Z,5.21
2019-03-03T08:42:26.394Z,5.41
2019-03-03T08:45:12.593Z,5.29
2019-03-03T08:47:54.568Z,5.32
2019-03-03T08:50:33.954Z,5.60
2019-03-03T08:53:24.487Z,5.57
2019-03-03T08:56:14.358Z,5.81
2019-03-03T08:59:08.286Z,5.77
2019-03-03T09:01:52.542Z,5.83
2019-03-03T09:04:53.211Z,6.18
2019-03-03T09:07:44.497Z,6.04
2019-03-03T09:10:26.339Z,6.45
2019-03-03T09:13:13.117Z,6.48
2019-03-03T09:16:13.153Z,6.24
2019-03-03T09:19:02.889Z,6.15
2019-03-03T09:21:56.774Z,6.14
2019-03-03T09:24:48.003Z,6.32
2019-03-03T09:27:36.227Z,6.67
2019-03-03T09:30:41.933Z,6.60
2019-03-03T09:33:39.452Z,6.82
2019-03-03T09:36:33.081Z,6.81
2019-03-03T09:39:41.003Z,6.76
2019-03-03T09:42:44.052Z,6.89
2019-03-03T09:45:50.388Z,6.75
2019-03-03T09:48:47.079Z,6.82
2019-03-03T09:51:36.929Z,6.77
2019-03-03T09:54:25.767Z,6.93
2019-03-03T09:57:23.973Z,7.16
2019-03-03T10:00:08.790Z,7.13
2019-03-03T10:02:50.222Z,7.29
2019-03-03T10:05:43.968Z,7.30
2019-03-03T10:08:33.907Z,7.58
2019-03-03T10:11:15.957Z,7.95
2019-03-03T10:14:02.825Z,7.83
2019-03-03T10:17:08.949Z,7.64
2019-03-03T10:20:04.439Z,7.59
2019-03-03T10:23:01.802Z,7.45
2019-03-03T10:25:53.225Z,7.29
2019-03-03T10:28:36.198Z,7.22
2019-03-03T10:31:25.226Z,7.33
2019-03-03T10:34:16.750Z,7.30
2019-03-03T10:37:11.239Z,7.36
2019-03-03T10:39:57.293Z,7.48
2019-03-03T10:42:34.754Z,7.33
2019-03-03T10:45:24.952Z,7.28
2019-03-03T10:48:15.874Z,7.26
2019-03-03T10:51:07.167Z,7.35
2019-03-03T10:53:54.369Z,7.34
2019-03-03T10:56:54.941Z,7.22
2019-03-03T10:59:35.173Z,7.27
2019-03-03T11:02:38.139Z,7.38
2019-03-03T11:05:22.271Z,7.25
2019-03-03T11:08:18.683Z,7.12
2019-03-03T11:11:08.268Z,7.13
2019-03-03T11:14:00.515Z,7.12
2019-03-03T11:16:59.608Z,7.13
2019-03-03T11:19:42.522Z,7.08
2019-03-03T11:22:21.033Z,7.16
2019-03-03T11:25:08.733Z,7.19
2019-03-03T11:28:06.235Z,7.12
2019-03-03T11:31:03.138Z,7.06
2019-03-03T11:33:46.556Z,7.07
2019-03-03T11:36:38.629Z,7.09
2019-03-03T11:39:32.262Z,7.07
2019-03-03T11:42:33.050Z,6.93
2019-03-03T11:45:23.509Z,6.86
2019-03-03T11:48:24.530Z,6.83
2019-03-03T11:51:15.808Z,6.68
2019-03-03T11:54:06.184Z,6.67
2019-03-03T11:56:57.290Z,6.64
2019-03-03T11:59:57.138Z,6.69
2019-03-03T12:02:53.744Z,6.74
2019-03-03T12:05:36.542Z,6.71
2019-03-03T12:08:28.006Z,6.82
2019-03-03T12:11:23.461Z,6.72
2019-03-03T12:14:12.048Z,6.81
2019-03-03T12:16:49.478Z,6.73
2019-03-03T12:19:32.813Z,6.73
2019-03-03T12:22:16.609Z,6.73
2019-03-03T12:25:07.126Z,6.92
2019-03-03T12:27:56.730Z,6.93
2019-03-03T12:30:46.611Z,6.91
2019-03-03T12:33:45.147Z,6.97
2019-03-03T12:36:39.469Z,7.00
2019-03-03T12:39:18.906Z,7.27
2019-03-03T12:42:08.637Z,7.52
2019-03-03T12:44:46.579Z,7.39
2019-03-03T12:47:37.355Z,7.60
2019-03-03T12:50:43.731Z,7.52
2019-03-03T12:53:37.850Z,7.46
2019-03-03T12:56:34.794Z,7.42
2019-03-03T12:59:29.469Z,7.41
2019-03-03T13:02:19.472Z,7.40
2019-03-03T13:04:59.780Z,7.38
2019-03-03T13:07:50.737Z,7.38
2019-03-03T13:10:30.151Z,7.36
2019-03-03T13:13:30.612Z,7.39
2019-03-03T13:16:31.144Z,7.39
2019-03-03T13:19:13.347Z,7.53
2019-03-03T13:22:13.825Z,7.47
2019-03-03T13:25:23.210Z,7.56
2019-03-03T13:28:29.792Z,7.65
2019-03-03T13:31:17.781Z,7.59
2019-03-03T13:34:24.420Z,7.68
2019-03-03T13:37:05.749Z,7.69
2019-03-03T13:39:51.834Z,7.83
2019-03-03T13:42:46.472Z,7.84
2019-03-03T13:45:19.097Z,7.90
2019-03-03T13:47:51.920Z,7.91
2019-03-03T13:50:25.756Z,7.86
2019-03-03T13:52:58.533Z,7.92
2019-03-03T13:55:32.767Z,7.91
2019-03-03T13:58:05.691Z,7.96
2019-03-03T14:00:38.879Z,7.99
2019-03-03T14:03:12.342Z,8.06
2019-03-03T14:05:46.269Z,8.04
2019-03-03T14:08:19.190Z,8.17
2019-03-03T14:10:52.461Z,8.03
2019-03-03T14:13:25.702Z,8.10
2019-03-03T14:15:58.867Z,8.14
2019-03-03T14:18:31.261Z,8.09
2019-03-03T14:21:04.272Z,8.14
2019-03-03T14:23:37.335Z,8.17
2019-03-03T14:26:10.799Z,8.17
2019-03-03T14:28:43.337Z,8.18
2019-03-03T14:31:16.091Z,8.22
2019-03-03T14:33:48.660Z,8.26
2019-03-03T14:36:21.871Z,8.34
2019-03-03T14:38:54.104Z,8.29
2019-03-03T14:41:26.736Z,8.40
2019-03-03T14:43:59.386Z,8.41
2019-03-03T14:46:31.901Z,8.50
2019-03-03T14:49:04.190Z,8.54
2019-03-03T14:51:36.683Z,8.52
2019-03-03T14:54:08.746Z,8.49
2019-03-03T14:56:42.701Z,8.55
2019-03-03T14:59:14.977Z,8.55
2019-03-03T15:01:47.080Z,8.54
2019-03-03T15:04:18.999Z,8.64
2019-03-03T15:06:51.166Z,8.67
2019-03-03T15:09:24.359Z,8.66
2019-03-03T15:11:56.756Z,8.69
2019-03-03T15:14:30.020Z,8.67
2019-03-03T15:17:02.324Z,8.78
2019-03-03T15:19:34.157Z,8.69
2019-03-03T15:22:06.136Z,8.80
2019-03-03T15:24:38.257Z,8.80
2019-03-03T15:27:11.059Z,8.79
2019-03-03T15:29:43.198Z,8.87
2019-03-03T15:32:15.732Z,8.91
2019-03-03T15:34:47.867Z,8.89
2019-03-03T15:37:20.673Z,8.90
2019-03-03T15:39:52.551Z,8.88
2019-03-03T15:42:24.928Z,8.91
2019-03-03T15:44:56.997Z,8.99
2019-03-03T15:47:29.578Z,8.97
2019-03-03T15:50:01.752Z,9.00
2019-03-03T15:52:34.021Z,9.06
2019-03-03T15:55:07.486Z,9.05
2019-03-03T15:57:40.464Z,9.07
2019-03-03T16:00:22.201Z,9.15
2019-03-03T16:02:54.537Z,9.19
2019-03-03T16:05:27.378Z,9.24
2019-03-03T16:07:59.513Z,9.29
2019-03-03T16:10:31.394Z,9.32
2019-03-03T16:13:04.038Z,9.34
2019-03-03T16:15:36.053Z,9.34
2019-03-03T16:18:08.316Z,9.33
2019-03-03T16:20:40.436Z,9.35
2019-03-03T16:23:12.919Z,9.35
2019-03-03T16:25:45.032Z,9.40
2019-03-03T16:28:17.847Z,9.40
2019-03-03T16:30:50.338Z,9.39
2019-03-03T16:33:22.636Z,9.35
2019-03-03T16:35:55.088Z,9.40
2019-03-03T16:38:27.757Z,9.34
2019-03-03T16:40:59.790Z,9.40
2019-03-03T16:43:31.869Z,9.46
2019-03-03T16:46:04.289Z,9.45
2019-03-03T16:48:38.581Z,9.44
2019-03-03T16:51:12.084Z,9.41
2019-03-03T16:53:45.282Z,9.43
2019-03-03T16:56:18.313Z,9.42
2019-03-03T16:58:50.928Z,9.47
2019-03-03T17:01:24.350Z,9.44
2019-03-03T17:03:57.908Z,9.48
2019-03-03T17:06:30.796Z,9.45
2019-03-03T17:09:05.329Z,9.44
2019-03-03T17:11:39.599Z,9.46
2019-03-03T17:14:12.751Z,9.43
2019-03-03T17:16:45.573Z,9.45
2019-03-03T17:19:18.757Z,9.49
2019-03-03T17:21:50.993Z,9.49
2019-03-03T17:24:23.229Z,9.47
2019-03-03T17:26:55.547Z,9.51
2019-03-03T17:29:30.841Z,9.60
2019-03-03T17:32:04.593Z,9.58
2019-03-03T17:34:36.980Z,9.54
2019-03-03T17:37:09.103Z,9.55
2019-03-03T17:39:42.423Z,9.62
2019-03-03T17:42:15.091Z,9.58
2019-03-03T17:44:48.673Z,9.64
2019-03-03T17:47:21.246Z,9.63
2019-03-03T17:49:53.732Z,9.61
2019-03-03T17:52:26.762Z,9.62
2019-03-03T17:55:00.558Z,9.60
2019-03-03T17:57:33.889Z,9.61
2019-03-03T18:00:09.233Z,9.49
2019-03-03T18:02:42.808Z,9.54
2019-03-03T18:05:17.893Z,9.42
2019-03-03T18:07:51.515Z,9.34
2019-03-03T18:10:25.568Z,9.38
2019-03-03T18:13:00.667Z,9.29
2019-03-03T18:15:34.751Z,9.12
2019-03-03T18:18:08.942Z,9.21
2019-03-03T18:20:43.545Z,9.10
2019-03-03T18:23:17.042Z,9.03
2019-03-03T18:25:51.295Z,8.88
2019-03-03T18:28:25.204Z,8.79
2019-03-03T18:30:59.793Z,8.78
2019-03-03T18:33:33.207Z,8.80
2019-03-03T18:36:07.332Z,8.74
2019-03-03T18:38:42.012Z,8.73
2019-03-03T18:41:16.036Z,8.79
2019-03-03T18:43:49.503Z,8.82
2019-03-03T18:46:23.797Z,8.72
2019-03-03T18:48:57.228Z,8.77
2019-03-03T18:51:31.235Z,8.65
2019-03-03T18:54:04.905Z,8.69
2019-03-03T18:56:40.868Z,8.62
2019-03-03T18:59:14.135Z,8.59
2019-03-03T19:01:48.095Z,8.67
2019-03-03T19:04:21.812Z,8.56
2019-03-03T19:06:57.857Z,8.60
2019-03-03T19:09:31.342Z,8.63
2019-03-03T19:12:04.897Z,8.53
2019-03-03T19:14:38.491Z,8.58
2019-03-03T19:17:12.933Z,8.55
2019-03-03T19:19:47.569Z,8.54
2019-03-03T19:22:21.831Z,8.57
2019-03-03T19:24:55.862Z,8.49
2019-03-03T19:27:29.905Z,8.42
2019-03-03T19:30:03.574Z,8.39
2019-03-03T19:32:39.459Z,8.35
2019-03-03T19:35:13.908Z,8.34
2019-03-03T19:37:47.874Z,8.34
2019-03-03T19:40:21.597Z,8.28
2019-03-03T19:42:56.759Z,8.25
2019-03-03T19:45:33.058Z,8.34
2019-03-03T19:48:07.617Z,8.35
2019-03-03T19:50:41.698Z,8.38
2019-03-03T19:53:16.265Z,8.43
2019-03-03T19:55:50.400Z,8.50
2019-03-03T19:58:25.739Z,8.36
2019-03-03T20:00:59.515Z,8.30
2019-03-03T20:03:34.289Z,8.29
2019-03-03T20:06:08.186Z,8.30
2019-03-03T20:08:42.167Z,8.22
2019-03-03T20:11:15.734Z,8.30
2019-03-03T20:13:51.027Z,8.29
2019-03-03T20:16:27.766Z,8.27
2019-03-03T20:19:02.164Z,8.23
2019-03-03T20:21:36.171Z,8.21
2019-03-03T20:24:10.685Z,8.34
2019-03-03T20:26:44.183Z,8.32
2019-03-03T20:29:17.882Z,8.33
2019-03-03T20:31:52.706Z,8.30
2019-03-03T20:34:26.396Z,8.30
2019-03-03T20:36:59.907Z,8.37
2019-03-03T20:39:33.589Z,8.37
2019-03-03T20:42:07.562Z,8.25
2019-03-03T20:44:41.335Z,8.28
2019-03-03T20:47:15.224Z,8.39
2019-03-03T20:49:49.450Z,8.36
2019-03-03T20:52:23.211Z,8.38
2019-03-03T20:54:57.065Z,8.39
2019-03-03T20:57:30.525Z,8.45
2019-03-03T21:00:04.469Z,8.45
2019-03-03T21:02:40.445Z,8.42
2019-03-03T21:05:14.862Z,8.42
2019-03-03T21:07:51.777Z,8.41
2019-03-03T21:10:25.361Z,8.42
2019-03-03T21:12:59.375Z,8.46
2019-03-03T21:15:33.446Z,8.47
2019-03-03T21:18:07.034Z,8.50
2019-03-03T21:20:41.113Z,8.55
2019-03-03T21:23:14.887Z,8.47
2019-03-03T21:25:49.467Z,8.45
2019-03-03T21:28:22.845Z,8.47
2019-03-03T21:30:56.967Z,8.43
2019-03-03T21:33:30.522Z,8.42
2019-03-03T21:36:05.361Z,8.47
2019-03-03T21:38:38.961Z,8.50
2019-03-03T21:41:13.909Z,8.48
2019-03-03T21:43:48.442Z,8.30
2019-03-03T21:46:23.693Z,8.30
2019-03-03T21:48:57.797Z,8.44
2019-03-03T21:51:31.456Z,8.34
2019-03-03T21:54:05.168Z,8.30
2019-03-03T21:56:39.671Z,8.36
2019-03-03T21:59:13.270Z,8.37
2019-03-03T22:01:47.460Z,8.21
2019-03-03T22:04:19.787Z,8.28
2019-03-03T22:06:52.494Z,8.35
2019-03-03T22:09:25.452Z,8.27
2019-03-03T22:11:57.807Z,8.20
2019-03-03T22:14:29.810Z,8.32
2019-03-03T22:17:02.158Z,8.30
2019-03-03T22:19:34.179Z,8.21
2019-03-03T22:22:06.851Z,8.29
2019-03-03T22:24:38.885Z,8.20
2019-03-03T22:27:12.026Z,8.14
2019-03-03T22:29:44.546Z,8.17
2019-03-03T22:32:17.761Z,8.16
2019-03-03T22:34:50.342Z,8.03
2019-03-03T22:37:23.530Z,8.16
2019-03-03T22:39:56.095Z,8.14
2019-03-03T22:42:28.981Z,8.15
2019-03-03T22:45:01.674Z,8.15
2019-03-03T22:47:34.724Z,8.10
2019-03-03T22:50:07.821Z,8.15
2019-03-03T22:52:40.467Z,8.12
2019-03-03T22:55:13.582Z,8.09
2019-03-03T22:57:46.090Z,8.10
2019-03-03T23:00:49.000Z,8.11
2019-03-03T23:04:20.806Z,8.07
2019-03-03T23:07:18.705Z,8.06
2019-03-03T23:11:03.432Z,8.00
2019-03-03T23:13:59.755Z,7.94
2019-03-03T23:17:38.796Z,7.96
2019-03-03T23:20:38.129Z,8.04
2019-03-03T23:24:05.083Z,7.99
2019-03-03T23:26:37.267Z,8.07
2019-03-03T23:29:09.339Z,8.00
2019-03-03T23:31:41.594Z,7.97
2019-03-03T23:34:14.196Z,8.00
2019-03-03T23:36:47.402Z,7.96
2019-03-03T23:39:19.580Z,7.94
2019-03-03T23:41:51.557Z,7.96
2019-03-03T23:44:23.576Z,7.91
2019-03-03T23:46:55.502Z,7.89
2019-03-03T23:49:27.617Z,7.93
2019-03-03T23:51:59.465Z,7.90
2019-03-03T23:54:31.777Z,7.93
2019-03-03T23:57:03.619Z,7.95
2019-03-03T23:59:35.555Z,7.97
